X  Cerrar Datos meteorológicos de aviación METAR     LIPX Verona-Villafranca Valerio Catullo Airport
Temperatura
13°C Temperatura
11°C Punto de rocío
88% Humedad



Viento
8 KM/H
5 MPH
2 M/S
4 NUDO



50°
NE
Condiciones actuales

Area Lluvia Area Lluvia
Presión 1016.93 (hPa) - 30.03 (inHg)
Visibilidad 6 (milla) - 9.7 (km)
Aeropuerto
Código de aeropuerto LIPX

localidad: Verona-Villafranca Valerio Catullo Airport
Distancia: 0 (km)

Metar:
LIPX 281350Z 05004KT 9999 VCSH FEW025 SCT035 BKN060 13/11 Q1017

Hora: 28-02-2024 13:50 CET